Rexburg, ID (83441)

1:07 AM MDT on September 02, 2014 (GMT -0600)
Rexburg-Madison County | Change Station
CLOSE
Current Station
Airport
Location: Rexburg,
Elevation: 4859 ft
Nearby Weather Stations

Elev 4859 ft 43.83 °N, 111.81 °W | Updated 14 minutes ago

Clear
Clear
55 °F
Feels Like 55 °F
N
8
Wind Variable Wind from South

Today
High -- | Low -- °F
--% Chance of Precip.
Yesterday
High -- | Low -- °F
Precip. -- in
6:51 AM 8:00 PM
Waxing Crescent, 48% visible
Pressure 29.98 in
Visibility 10.0 miles
Clouds Clear
Dew Point 38 °F
Humidity 53%
Rainfall 0.00 in
Snow Depth Not available.
UV 0 out of 12
Pollen 8.00 out of 12
Air Quality Not available.
Flu Activity Not available.
METAR KRXE 020653Z AUTO 18007KT 10SM CLR 13/03 A3006 RMK AO2 SLP150 T01280033 402110067

More Conditions Fewer Conditions

Pressure 29.98 in
Visibility 10.0 miles
Clouds Clear
Dew Point 38 °F
Humidity 53%
Rainfall 0.00 in
Snow Depth Not available.
UV 0 out of 12
Pollen 8.00 out of 12
Air Quality Not available.
Flu Activity Not available.
METAR KRXE 020653Z AUTO 18007KT 10SM CLR 13/03 A3006 RMK AO2 SLP150 T01280033 402110067

More Conditions Fewer Conditions

10-Day Weather Forecast

Almanac

Astronomy

Sep. 02, 2014 Rise Set
Actual Time 6:51 AM MDT 8:00 PM MDT
Civil Twilight 6:21 AM MDT 8:29 PM MDT
Nautical Twilight 5:46 AM MDT 9:04 PM MDT
Astronomical Twilight 5:08 AM MDT 9:42 PM MDT
Moon 2:52 PM MDT No Moon Set
Length of Visible Light 14h 07m
Length of Day
13h 08m
Tomorrow will be 2m 53s shorter.
Waxing Crescent, 48% of the Moon is Illuminated
Today
Waxing Crescent
Sep 2
First Quarter
Sep 8
Full
Sep 15
Last Quarter
Sep 24
New

Today's Extremes

State Highs State Lows

Community

WunderPhotos

Upload Photos

1,749,589 photos uploaded!

WunderBlogs® & News

Nearby

Snow Depth

Station Depth Elevation
Pine Creek Pass 0 in 6720 ft
Sheep Mountain 0 in 6570 ft
Island Park 0 in 6290 ft
Crab Creek 0 in 6860 ft
White Elephant 1 in 7710 ft

Earthquake Activity

City Distance Mag. Time & Date
Driggs, Idaho 35 miles 3.8 2:09 PM MDT
2014-08-30
Minimum magnitude displayed is 2.5.

Coastal Water Temperatures

Place Temperature
No Stations Reporting

Nearby Weather Stations